createdAt,value
2023-05-10T00:00:45.348Z,14.77
2023-05-10T00:03:19.149Z,14.76
2023-05-10T00:05:42.150Z,14.82
2023-05-10T00:08:16.725Z,14.79
2023-05-10T00:10:43.186Z,14.71
2023-05-10T00:13:18.135Z,14.76
2023-05-10T00:15:52.695Z,14.79
2023-05-10T00:18:16.342Z,14.80
2023-05-10T00:20:44.859Z,14.86
2023-05-10T00:23:20.326Z,14.91
2023-05-10T00:25:53.822Z,14.93
2023-05-10T00:28:11.693Z,14.98
2023-05-10T00:30:38.104Z,15.02
2023-05-10T00:33:00.227Z,15.05
2023-05-10T00:35:27.164Z,15.07
2023-05-10T00:37:50.640Z,15.03
2023-05-10T00:40:16.333Z,15.04
2023-05-10T00:42:49.847Z,15.02
2023-05-10T00:45:25.658Z,14.92
2023-05-10T00:48:00.401Z,14.88
2023-05-10T00:50:35.388Z,14.88
2023-05-10T00:53:09.617Z,14.88
2023-05-10T00:55:29.030Z,14.87
2023-05-10T00:57:56.848Z,14.86
2023-05-10T01:00:31.774Z,14.85
2023-05-10T01:03:06.923Z,14.91
2023-05-10T01:05:35.093Z,14.89
2023-05-10T01:08:10.731Z,14.91
2023-05-10T01:10:54.819Z,14.99
2023-05-10T01:13:38.209Z,14.98
2023-05-10T01:16:12.470Z,14.89
2023-05-10T01:18:49.042Z,14.79
2023-05-10T01:21:31.221Z,14.71
2023-05-10T01:24:36.511Z,14.58
2023-05-10T01:27:22.048Z,14.57
2023-05-10T01:30:35.528Z,14.58
2023-05-10T01:33:05.819Z,14.61
2023-05-10T01:35:40.321Z,14.62
2023-05-10T01:38:11.978Z,14.70
2023-05-10T01:40:52.821Z,14.73
2023-05-10T01:43:35.218Z,14.74
2023-05-10T01:46:14.164Z,14.71
2023-05-10T01:48:58.311Z,14.74
2023-05-10T01:51:35.817Z,14.87
2023-05-10T01:54:16.296Z,14.95
2023-05-10T01:56:52.696Z,14.93
2023-05-10T01:59:23.099Z,14.88
2023-05-10T02:02:01.198Z,14.91
2023-05-10T02:04:36.296Z,14.88
2023-05-10T02:07:11.636Z,14.86
2023-05-10T02:09:36.567Z,14.82
2023-05-10T02:12:13.336Z,14.76
2023-05-10T02:14:42.831Z,14.69
2023-05-10T02:17:20.821Z,14.62
2023-05-10T02:19:55.870Z,14.62
2023-05-10T02:22:30.572Z,14.61
2023-05-10T02:25:06.447Z,14.56
2023-05-10T02:27:41.797Z,14.52
2023-05-10T02:30:06.244Z,14.41
2023-05-10T02:32:36.484Z,14.26
2023-05-10T02:35:12.734Z,14.22
2023-05-10T02:37:42.828Z,14.22
2023-05-10T02:40:20.452Z,14.24
2023-05-10T02:42:56.852Z,14.25
2023-05-10T02:45:33.520Z,14.26
2023-05-10T02:48:08.202Z,14.22
2023-05-10T02:50:48.654Z,14.14
2023-05-10T02:53:34.858Z,14.15
2023-05-10T02:56:18.150Z,14.13
2023-05-10T02:58:53.354Z,14.07
2023-05-10T03:01:16.756Z,13.99
2023-05-10T03:03:50.495Z,13.91
2023-05-10T03:06:26.110Z,13.87
2023-05-10T03:09:01.656Z,13.83
2023-05-10T03:11:48.888Z,13.75
2023-05-10T03:14:34.776Z,13.70
2023-05-10T03:17:11.325Z,13.66
2023-05-10T03:19:44.501Z,13.57
2023-05-10T03:22:17.472Z,13.53
2023-05-10T03:24:53.512Z,13.51
2023-05-10T03:27:28.928Z,13.53
2023-05-10T03:29:57.299Z,13.54
2023-05-10T03:32:35.082Z,13.55
2023-05-10T03:35:16.393Z,13.51
2023-05-10T03:37:37.142Z,13.47
2023-05-10T03:39:57.234Z,13.44
2023-05-10T03:42:23.932Z,13.43
2023-05-10T03:44:44.991Z,13.39
2023-05-10T03:47:02.817Z,13.34
2023-05-10T03:49:27.704Z,13.29
2023-05-10T03:51:45.578Z,13.24
2023-05-10T03:54:20.162Z,13.19
2023-05-10T03:56:50.013Z,13.11
2023-05-10T03:59:19.251Z,13.01
2023-05-10T04:01:44.802Z,12.95
2023-05-10T04:04:17.004Z,12.87
2023-05-10T04:06:42.406Z,12.78
2023-05-10T04:09:02.044Z,12.74
2023-05-10T04:11:26.921Z,12.71
2023-05-10T04:14:00.371Z,12.67
2023-05-10T04:16:35.779Z,12.64
2023-05-10T04:19:03.969Z,12.60
2023-05-10T04:21:23.316Z,12.58
2023-05-10T04:23:56.769Z,12.56
2023-05-10T04:26:13.545Z,12.54
2023-05-10T04:28:48.293Z,12.50
2023-05-10T04:31:23.914Z,12.45
2023-05-10T04:33:41.374Z,12.39
2023-05-10T04:36:07.939Z,12.35
2023-05-10T04:38:34.298Z,12.27
2023-05-10T04:41:00.192Z,12.20
2023-05-10T04:43:34.745Z,12.10
2023-05-10T04:45:52.444Z,12.03
2023-05-10T04:48:09.749Z,11.91
2023-05-10T04:50:45.341Z,11.83
2023-05-10T04:54:05.179Z,11.74
2023-05-10T04:56:04.685Z,11.66
2023-05-10T04:58:43.732Z,11.60
2023-05-10T05:01:13.023Z,11.56
2023-05-10T05:03:48.228Z,11.51
2023-05-10T05:06:07.970Z,11.47
2023-05-10T05:08:36.477Z,11.42
2023-05-10T05:11:07.702Z,11.38
2023-05-10T05:13:43.277Z,11.32
2023-05-10T05:16:08.100Z,11.29
2023-05-10T05:18:36.569Z,11.25
2023-05-10T05:21:07.819Z,11.20
2023-05-10T05:23:42.629Z,11.16
2023-05-10T05:28:56.762Z,11.10
2023-05-10T05:31:30.522Z,11.07
2023-05-10T05:34:03.549Z,11.04
2023-05-10T05:36:20.395Z,11.00
2023-05-10T05:38:53.473Z,10.98
2023-05-10T05:41:19.001Z,10.94
2023-05-10T05:43:53.328Z,10.90
2023-05-10T05:46:27.559Z,10.86
2023-05-10T05:48:49.884Z,10.79
2023-05-10T05:51:10.176Z,10.75
2023-05-10T05:53:34.490Z,10.71
2023-05-10T05:56:02.962Z,10.67
2023-05-10T05:58:27.855Z,10.62
2023-05-10T06:00:45.609Z,10.58
2023-05-10T06:03:11.314Z,10.52
2023-05-10T06:05:44.486Z,10.45
2023-05-10T06:08:18.730Z,10.40
2023-05-10T06:10:53.138Z,10.35
2023-05-10T06:13:14.093Z,10.30
2023-05-10T06:15:32.376Z,10.26
2023-05-10T06:17:53.078Z,10.23
2023-05-10T06:20:19.670Z,10.20
2023-05-10T06:22:43.811Z,10.16
2023-05-10T06:25:07.425Z,10.13
2023-05-10T06:27:27.159Z,10.08
2023-05-10T06:29:48.253Z,10.04
2023-05-10T06:32:21.639Z,9.99
2023-05-10T06:34:45.598Z,9.95
2023-05-10T06:37:19.843Z,9.88
2023-05-10T06:39:36.341Z,9.83
2023-05-10T06:42:18.925Z,9.76
2023-05-10T06:44:39.104Z,9.69
2023-05-10T06:47:00.261Z,9.64
2023-05-10T06:49:32.058Z,9.58
2023-05-10T06:51:49.781Z,9.54
2023-05-10T06:54:10.236Z,9.51
2023-05-10T06:56:45.529Z,9.46
2023-05-10T06:59:12.707Z,9.43
2023-05-10T07:01:49.015Z,9.40
2023-05-10T07:04:22.697Z,9.36
2023-05-10T07:06:44.498Z,9.33
2023-05-10T07:09:18.239Z,9.31
2023-05-10T07:11:40.616Z,9.30
2023-05-10T07:14:14.104Z,9.29
2023-05-10T07:16:49.300Z,9.28
2023-05-10T07:19:12.563Z,9.28
2023-05-10T07:21:46.156Z,9.25
2023-05-10T07:24:13.966Z,9.22
2023-05-10T07:26:48.687Z,9.19
2023-05-10T07:29:22.870Z,9.16
2023-05-10T07:31:58.720Z,9.13
2023-05-10T07:34:34.002Z,9.11
2023-05-10T07:36:57.329Z,9.09
2023-05-10T07:39:34.558Z,9.08
2023-05-10T07:42:08.440Z,9.08
2023-05-10T07:44:31.157Z,9.07
2023-05-10T07:46:53.345Z,9.05
2023-05-10T07:49:27.564Z,9.04
2023-05-10T07:52:02.219Z,9.00
2023-05-10T07:54:32.250Z,8.98
2023-05-10T07:57:06.201Z,8.96
2023-05-10T07:59:39.607Z,8.96
2023-05-10T08:02:13.511Z,8.96
2023-05-10T08:04:56.046Z,8.96
2023-05-10T08:07:31.440Z,8.95
2023-05-10T08:10:05.345Z,8.94
2023-05-10T08:12:40.899Z,8.93
2023-05-10T08:15:16.803Z,8.91
2023-05-10T08:17:54.804Z,8.90
2023-05-10T08:20:29.493Z,8.88
2023-05-10T08:23:02.885Z,8.85
2023-05-10T08:25:26.444Z,8.82
2023-05-10T08:28:00.606Z,8.80
2023-05-10T08:30:34.720Z,8.78
2023-05-10T08:33:08.354Z,8.76
2023-05-10T08:35:42.066Z,8.73
2023-05-10T08:38:05.970Z,8.70
2023-05-10T08:40:32.169Z,8.67
2023-05-10T08:43:10.173Z,8.63
2023-05-10T08:45:47.469Z,8.60
2023-05-10T08:48:13.372Z,8.61
2023-05-10T08:50:49.513Z,8.62
2023-05-10T08:53:24.801Z,8.63
2023-05-10T08:55:51.448Z,8.63
2023-05-10T08:58:14.467Z,8.63
2023-05-10T09:00:34.395Z,8.61
2023-05-10T09:03:01.431Z,8.59
2023-05-10T09:05:29.530Z,8.57
2023-05-10T09:08:03.523Z,8.55
2023-05-10T09:10:58.808Z,8.52
2023-05-10T09:13:27.721Z,8.50
2023-05-10T09:16:13.598Z,8.48
2023-05-10T09:18:57.256Z,8.46
2023-05-10T09:21:26.838Z,8.43
2023-05-10T09:24:00.298Z,8.39
2023-05-10T09:26:34.356Z,8.34
2023-05-10T09:29:01.498Z,8.31
2023-05-10T09:31:53.184Z,8.28
2023-05-10T09:34:20.056Z,8.25
2023-05-10T09:37:02.861Z,8.23
2023-05-10T09:39:44.890Z,8.20
2023-05-10T09:42:12.733Z,8.18
2023-05-10T09:44:48.499Z,8.16
2023-05-10T09:47:24.082Z,8.14
2023-05-10T09:50:05.017Z,8.11
2023-05-10T09:52:49.845Z,8.09
2023-05-10T09:55:25.227Z,8.04
2023-05-10T09:58:06.698Z,8.00
2023-05-10T10:00:47.366Z,7.97
2023-05-10T10:03:24.890Z,7.94
2023-05-10T10:06:00.697Z,7.92
2023-05-10T10:08:34.799Z,7.90
2023-05-10T10:11:09.221Z,7.89
2023-05-10T10:13:44.873Z,7.88
2023-05-10T10:16:18.428Z,7.88
2023-05-10T10:18:52.767Z,7.88
2023-05-10T10:21:49.862Z,7.89
2023-05-10T10:24:12.269Z,7.89
2023-05-10T10:26:46.855Z,7.89
2023-05-10T10:29:30.548Z,7.86
2023-05-10T10:32:15.323Z,7.85
2023-05-10T10:34:48.678Z,7.86
2023-05-10T10:37:24.462Z,7.87
2023-05-10T10:39:59.705Z,7.86
2023-05-10T10:42:53.915Z,7.83
2023-05-10T10:45:29.570Z,7.81
2023-05-10T10:48:28.144Z,7.78
2023-05-10T10:51:06.932Z,7.76
2023-05-10T10:53:33.222Z,7.75
2023-05-10T10:56:17.677Z,7.73
2023-05-10T10:58:46.044Z,7.71
2023-05-10T11:01:24.226Z,7.69
2023-05-10T11:04:24.554Z,7.66
2023-05-10T11:07:18.211Z,7.61
2023-05-10T11:09:48.258Z,7.57
2023-05-10T11:12:22.707Z,7.53
2023-05-10T11:15:04.549Z,7.48
2023-05-10T11:17:39.375Z,7.45
2023-05-10T11:20:25.076Z,7.43
2023-05-10T11:22:59.651Z,7.39
2023-05-10T11:25:36.016Z,7.36
2023-05-10T11:28:13.035Z,7.33
2023-05-10T11:30:49.382Z,7.30
2023-05-10T11:33:27.250Z,7.28
2023-05-10T11:36:00.871Z,7.24
2023-05-10T11:38:37.128Z,7.20
2023-05-10T11:41:09.406Z,7.16
2023-05-10T11:43:45.628Z,7.15
2023-05-10T11:46:20.027Z,7.14
2023-05-10T11:49:02.960Z,7.11
2023-05-10T11:51:38.697Z,7.08
2023-05-10T11:54:15.212Z,7.06
2023-05-10T11:56:48.891Z,7.02
2023-05-10T11:59:24.115Z,6.99
2023-05-10T12:01:58.413Z,6.97
2023-05-10T12:04:34.280Z,6.96
2023-05-10T12:07:08.249Z,6.95
2023-05-10T12:09:43.940Z,6.96
2023-05-10T12:12:22.928Z,6.97
2023-05-10T12:14:58.941Z,6.97
2023-05-10T12:17:38.038Z,6.98
2023-05-10T12:20:25.997Z,7.02
2023-05-10T12:23:01.468Z,7.02
2023-05-10T12:25:37.889Z,7.00
2023-05-10T12:28:14.368Z,6.98
2023-05-10T12:30:50.058Z,6.97
2023-05-10T12:33:16.899Z,6.95
2023-05-10T12:35:54.826Z,6.92
2023-05-10T12:38:45.233Z,6.90
2023-05-10T12:41:19.685Z,6.89
2023-05-10T12:43:54.522Z,6.89
2023-05-10T12:46:30.126Z,6.88
2023-05-10T12:49:07.712Z,6.89
2023-05-10T12:51:37.431Z,6.88
2023-05-10T12:54:03.344Z,6.88
2023-05-10T12:56:31.972Z,6.90
2023-05-10T12:59:06.206Z,6.93
2023-05-10T13:01:40.627Z,6.96
2023-05-10T13:04:15.398Z,6.99
2023-05-10T13:06:48.645Z,7.01
2023-05-10T13:09:22.613Z,7.02
2023-05-10T13:11:56.952Z,7.04
2023-05-10T13:14:24.378Z,7.04
2023-05-10T13:16:56.534Z,7.05
2023-05-10T13:19:20.573Z,7.05
2023-05-10T13:24:41.335Z,7.12
2023-05-10T13:27:15.310Z,7.13
2023-05-10T13:29:49.556Z,7.14
2023-05-10T13:32:23.806Z,7.15
2023-05-10T13:34:57.807Z,7.16
2023-05-10T13:37:31.566Z,7.17
2023-05-10T13:40:06.166Z,7.19
2023-05-10T13:42:40.389Z,7.21
2023-05-10T13:45:15.881Z,7.27
2023-05-10T13:47:50.830Z,7.34
2023-05-10T13:50:27.805Z,7.39
2023-05-10T13:52:54.913Z,7.46
2023-05-10T13:55:29.282Z,7.53
2023-05-10T13:58:05.410Z,7.59
2023-05-10T14:00:39.829Z,7.63
2023-05-10T14:03:14.528Z,7.67
2023-05-10T14:05:49.523Z,7.71
2023-05-10T14:08:24.712Z,7.74
2023-05-10T14:11:00.501Z,7.79
2023-05-10T14:13:33.736Z,7.85
2023-05-10T14:15:58.274Z,7.91
2023-05-10T14:18:31.920Z,8.02
2023-05-10T14:21:06.129Z,8.17
2023-05-10T14:23:33.833Z,8.32
2023-05-10T14:26:07.221Z,8.51
2023-05-10T14:28:40.532Z,8.67
2023-05-10T14:31:03.301Z,8.85
2023-05-10T14:33:37.701Z,9.05
2023-05-10T14:36:02.010Z,9.25
2023-05-10T14:38:37.657Z,9.48
2023-05-10T14:41:11.996Z,9.72
2023-05-10T14:43:46.021Z,9.96
2023-05-10T14:46:12.855Z,10.18
2023-05-10T14:48:35.631Z,10.38
2023-05-10T14:51:10.658Z,10.59
2023-05-10T14:53:44.901Z,10.78
2023-05-10T14:56:09.170Z,10.93
2023-05-10T14:58:34.609Z,11.11
2023-05-10T15:01:09.253Z,11.29
2023-05-10T15:03:43.882Z,11.46
2023-05-10T15:06:18.964Z,11.55
2023-05-10T15:08:52.735Z,11.66
2023-05-10T15:11:26.814Z,11.77
2023-05-10T15:14:01.381Z,11.88
2023-05-10T15:16:36.477Z,12.03
2023-05-10T15:19:10.570Z,12.17
2023-05-10T15:21:46.630Z,12.27
2023-05-10T15:24:20.487Z,12.31
2023-05-10T15:26:43.534Z,12.34
2023-05-10T15:29:21.942Z,12.39
2023-05-10T15:31:56.455Z,12.44
2023-05-10T15:34:32.255Z,12.50
2023-05-10T15:37:00.177Z,12.56
2023-05-10T15:39:34.041Z,12.65
2023-05-10T15:42:07.327Z,12.72
2023-05-10T15:44:41.069Z,12.78
2023-05-10T15:47:03.720Z,12.81
2023-05-10T15:49:38.638Z,12.85
2023-05-10T15:52:13.639Z,12.88
2023-05-10T15:54:47.171Z,12.91
2023-05-10T15:57:20.973Z,12.97
2023-05-10T15:59:53.998Z,13.05
2023-05-10T16:02:28.461Z,13.09
2023-05-10T16:05:00.909Z,13.14
2023-05-10T16:07:34.664Z,13.22
2023-05-10T16:10:09.279Z,13.31
2023-05-10T16:12:45.850Z,13.41
2023-05-10T16:15:20.024Z,13.49
2023-05-10T16:17:47.113Z,13.55
2023-05-10T16:20:20.819Z,13.59
2023-05-10T16:22:56.231Z,13.61
2023-05-10T16:25:30.697Z,13.60
2023-05-10T16:28:05.031Z,13.61
2023-05-10T16:30:38.904Z,13.65
2023-05-10T16:33:14.159Z,13.74
2023-05-10T16:35:49.339Z,13.78
2023-05-10T16:38:22.731Z,13.84
2023-05-10T16:40:46.073Z,13.86
2023-05-10T16:43:20.767Z,13.88
2023-05-10T16:45:54.657Z,13.90
2023-05-10T16:48:28.449Z,13.94
2023-05-10T16:51:02.574Z,13.99
2023-05-10T16:53:36.855Z,14.05
2023-05-10T16:56:11.937Z,14.08
2023-05-10T16:58:46.068Z,14.13
2023-05-10T17:01:13.694Z,14.14
2023-05-10T17:03:48.395Z,14.17
2023-05-10T17:06:22.102Z,14.25
2023-05-10T17:08:56.813Z,14.34
2023-05-10T17:11:31.088Z,14.48
2023-05-10T17:14:05.412Z,14.59
2023-05-10T17:16:40.103Z,14.69
2023-05-10T17:19:06.029Z,14.86
2023-05-10T17:21:33.581Z,14.99
2023-05-10T17:24:07.010Z,15.09
2023-05-10T17:26:41.603Z,15.13
2023-05-10T17:29:04.784Z,15.14
2023-05-10T17:31:38.962Z,15.15
2023-05-10T17:34:14.835Z,15.19
2023-05-10T17:36:49.078Z,15.21
2023-05-10T17:39:11.737Z,15.21
2023-05-10T17:41:39.143Z,15.25
2023-05-10T17:44:05.952Z,15.30
2023-05-10T17:46:40.211Z,15.36
2023-05-10T17:49:14.715Z,15.38
2023-05-10T17:51:50.682Z,15.38
2023-05-10T17:54:13.139Z,15.34
2023-05-10T17:56:48.669Z,15.31
2023-05-10T17:59:22.767Z,15.30
2023-05-10T18:01:56.590Z,15.24
2023-05-10T18:04:31.072Z,15.23
2023-05-10T18:07:04.901Z,15.18
2023-05-10T18:09:40.011Z,15.13
2023-05-10T18:12:14.855Z,15.15
2023-05-10T18:14:51.557Z,15.18
2023-05-10T18:17:30.117Z,15.22
2023-05-10T18:20:04.397Z,15.24
2023-05-10T18:22:39.201Z,15.30
2023-05-10T18:25:03.292Z,15.38
2023-05-10T18:27:37.825Z,15.47
2023-05-10T18:30:13.601Z,15.53
2023-05-10T18:32:47.846Z,15.58
2023-05-10T18:35:21.916Z,15.54
2023-05-10T18:37:49.717Z,15.49
2023-05-10T18:40:18.158Z,15.52
2023-05-10T18:42:52.740Z,15.51
2023-05-10T18:45:19.587Z,15.59
2023-05-10T18:47:54.338Z,15.67
2023-05-10T18:50:18.177Z,15.63
2023-05-10T18:52:53.702Z,15.65
2023-05-10T18:55:28.986Z,15.69
2023-05-10T18:58:03.045Z,15.71
2023-05-10T19:00:36.980Z,15.79
2023-05-10T19:03:00.589Z,15.78
2023-05-10T19:05:34.391Z,15.76
2023-05-10T19:08:08.837Z,15.78
2023-05-10T19:10:36.810Z,15.83
2023-05-10T19:13:11.181Z,15.85
2023-05-10T19:15:37.755Z,15.86
2023-05-10T19:18:16.945Z,15.85
2023-05-10T19:20:50.617Z,15.84
2023-05-10T19:23:23.667Z,15.83
2023-05-10T19:25:59.241Z,15.87
2023-05-10T19:28:35.960Z,15.86
2023-05-10T19:31:10.497Z,15.84
2023-05-10T19:33:43.636Z,15.87
2023-05-10T19:36:17.964Z,15.89
2023-05-10T19:38:45.023Z,15.85
2023-05-10T19:41:18.712Z,15.90
2023-05-10T19:43:54.766Z,15.98
2023-05-10T19:46:20.010Z,16.06
2023-05-10T19:48:57.938Z,16.11
2023-05-10T19:51:25.697Z,16.08
2023-05-10T19:53:59.584Z,16.04
2023-05-10T19:56:33.928Z,16.09
2023-05-10T19:59:09.029Z,16.14
2023-05-10T20:01:42.817Z,16.12
2023-05-10T20:04:17.051Z,16.14
2023-05-10T20:06:50.088Z,16.19
2023-05-10T20:09:25.533Z,16.26
2023-05-10T20:11:59.767Z,16.25
2023-05-10T20:14:34.518Z,16.24
2023-05-10T20:17:08.129Z,16.36
2023-05-10T20:19:43.558Z,16.43
2023-05-10T20:22:18.361Z,16.46
2023-05-10T20:24:41.327Z,16.51
2023-05-10T20:27:15.119Z,16.56
2023-05-10T20:29:50.654Z,16.60
2023-05-10T20:32:26.248Z,16.66
2023-05-10T20:35:00.326Z,16.71
2023-05-10T20:37:34.235Z,16.74
2023-05-10T20:40:09.209Z,16.81
2023-05-10T20:42:42.903Z,16.70
2023-05-10T20:45:02.950Z,16.62
2023-05-10T20:47:36.922Z,16.50
2023-05-10T20:50:00.325Z,16.49
2023-05-10T20:52:34.786Z,16.48
2023-05-10T20:55:10.714Z,16.43
2023-05-10T20:57:45.232Z,16.37
2023-05-10T21:00:21.107Z,16.34
2023-05-10T21:02:57.973Z,16.43
2023-05-10T21:05:32.202Z,16.45
2023-05-10T21:08:05.977Z,16.40
2023-05-10T21:10:40.801Z,16.39
2023-05-10T21:13:04.138Z,16.37
2023-05-10T21:15:38.235Z,16.36
2023-05-10T21:18:12.896Z,16.37
2023-05-10T21:20:48.298Z,16.37
2023-05-10T21:23:21.331Z,16.37
2023-05-10T21:25:57.000Z,16.42
2023-05-10T21:28:30.949Z,16.42
2023-05-10T21:30:54.092Z,16.34
2023-05-10T21:33:29.049Z,16.29
2023-05-10T21:36:06.085Z,16.25
2023-05-10T21:38:33.902Z,16.22
2023-05-10T21:41:12.011Z,16.28
2023-05-10T21:43:47.801Z,16.23
2023-05-10T21:46:16.575Z,16.14
2023-05-10T21:48:40.159Z,16.09
2023-05-10T21:51:13.961Z,16.13
2023-05-10T21:53:47.362Z,16.23
2023-05-10T21:56:23.060Z,16.26
2023-05-10T21:58:56.804Z,16.27
2023-05-10T22:01:32.717Z,16.20
2023-05-10T22:03:59.668Z,16.19
2023-05-10T22:06:35.029Z,16.27
2023-05-10T22:09:10.149Z,16.34
2023-05-10T22:11:44.301Z,16.43
2023-05-10T22:14:20.021Z,16.51
2023-05-10T22:16:54.364Z,16.51
2023-05-10T22:19:19.423Z,16.43
2023-05-10T22:21:53.054Z,16.35
2023-05-10T22:24:28.566Z,16.32
2023-05-10T22:27:04.379Z,16.28
2023-05-10T22:29:38.394Z,16.14
2023-05-10T22:32:12.753Z,16.05
2023-05-10T22:34:36.957Z,16.06
2023-05-10T22:37:11.378Z,16.13
2023-05-10T22:39:44.565Z,16.17
2023-05-10T22:42:18.416Z,16.14
2023-05-10T22:44:52.767Z,16.12
2023-05-10T22:47:27.142Z,16.15
2023-05-10T22:50:00.411Z,16.16
2023-05-10T22:52:26.908Z,16.11
2023-05-10T22:55:03.214Z,16.03
2023-05-10T22:57:37.720Z,16.03
2023-05-10T23:00:13.967Z,16.09
2023-05-10T23:05:35.061Z,16.22
2023-05-10T23:08:02.143Z,16.28
2023-05-10T23:10:38.907Z,16.31
2023-05-10T23:13:13.394Z,16.36
2023-05-10T23:15:47.241Z,16.47
2023-05-10T23:18:21.679Z,16.64
2023-05-10T23:20:49.332Z,16.78
2023-05-10T23:23:24.398Z,16.84
2023-05-10T23:25:58.130Z,16.81
2023-05-10T23:28:32.603Z,16.76
2023-05-10T23:31:07.426Z,16.75
2023-05-10T23:33:28.771Z,16.73
2023-05-10T23:35:52.307Z,16.71
2023-05-10T23:38:28.299Z,16.60
2023-05-10T23:41:03.944Z,16.59
2023-05-10T23:43:38.344Z,16.65
2023-05-10T23:46:14.619Z,16.67
2023-05-10T23:48:49.512Z,16.70
2023-05-10T23:51:23.550Z,16.73
2023-05-10T23:54:30.809Z,16.70
2023-05-10T23:57:05.254Z,16.60
2023-05-10T23:59:29.629Z,16.60
